createdAt,value
2023-03-15T00:01:18.889Z,23.80
2023-03-15T00:03:47.623Z,23.80
2023-03-15T00:06:15.789Z,23.80
2023-03-15T00:08:47.593Z,23.80
2023-03-15T00:11:17.039Z,23.80
2023-03-15T00:13:45.968Z,23.80
2023-03-15T00:16:18.584Z,23.80
2023-03-15T00:18:47.421Z,23.80
2023-03-15T00:21:15.617Z,23.80
2023-03-15T00:23:43.401Z,23.80
2023-03-15T00:26:11.415Z,23.80
2023-03-15T00:28:39.797Z,23.80
2023-03-15T00:31:19.749Z,23.80
2023-03-15T00:33:48.907Z,23.80
2023-03-15T00:36:16.935Z,23.80
2023-03-15T00:38:44.811Z,23.80
2023-03-15T00:41:15.446Z,23.80
2023-03-15T00:43:44.115Z,23.80
2023-03-15T00:46:12.389Z,23.80
2023-03-15T00:48:40.646Z,23.70
2023-03-15T00:51:14.201Z,23.80
2023-03-15T00:53:44.439Z,23.80
2023-03-15T00:56:20.393Z,23.80
2023-03-15T00:58:48.650Z,23.70
2023-03-15T01:01:19.673Z,23.80
2023-03-15T01:03:48.527Z,23.70
2023-03-15T01:06:22.826Z,23.70
2023-03-15T01:08:51.686Z,23.70
2023-03-15T01:11:24.459Z,23.70
2023-03-15T01:13:53.616Z,23.70
2023-03-15T01:16:21.971Z,23.70
2023-03-15T01:18:51.665Z,23.70
2023-03-15T01:21:21.877Z,23.70
2023-03-15T01:23:50.842Z,23.70
2023-03-15T01:26:23.058Z,23.70
2023-03-15T01:28:51.268Z,23.70
2023-03-15T01:31:26.604Z,23.70
2023-03-15T01:33:54.530Z,23.70
2023-03-15T01:36:23.396Z,23.70
2023-03-15T01:38:51.342Z,23.70
2023-03-15T01:41:26.016Z,23.70
2023-03-15T01:43:54.595Z,23.70
2023-03-15T01:46:25.814Z,23.70
2023-03-15T01:48:58.200Z,23.70
2023-03-15T01:51:49.048Z,23.70
2023-03-15T01:54:32.798Z,23.70
2023-03-15T01:57:16.352Z,23.70
2023-03-15T01:59:49.479Z,23.70
2023-03-15T02:02:17.853Z,23.70
2023-03-15T02:04:53.012Z,23.70
2023-03-15T02:07:25.041Z,23.70
2023-03-15T02:10:06.471Z,23.60
2023-03-15T02:12:42.052Z,23.60
2023-03-15T02:15:11.696Z,23.70
2023-03-15T02:17:43.540Z,23.70
2023-03-15T02:20:40.163Z,23.60
2023-03-15T02:23:17.936Z,23.60
2023-03-15T02:25:57.861Z,23.60
2023-03-15T02:28:29.392Z,23.60
2023-03-15T02:30:58.187Z,23.60
2023-03-15T02:33:28.177Z,23.60
2023-03-15T02:36:06.576Z,23.60
2023-03-15T02:38:34.371Z,23.60
2023-03-15T02:41:02.244Z,23.60
2023-03-15T02:43:32.881Z,23.60
2023-03-15T02:46:01.545Z,23.60
2023-03-15T02:48:31.442Z,23.60
2023-03-15T02:50:59.224Z,23.60
2023-03-15T02:57:55.576Z,23.60
2023-03-15T03:00:23.892Z,23.60
2023-03-15T03:07:22.798Z,23.60
2023-03-15T03:09:57.179Z,23.60
2023-03-15T03:12:27.120Z,23.60
2023-03-15T03:14:56.839Z,23.60
2023-03-15T03:17:25.576Z,23.60
2023-03-15T03:19:53.650Z,23.60
2023-03-15T03:22:28.300Z,23.60
2023-03-15T03:24:56.209Z,23.60
2023-03-15T03:27:23.999Z,23.60
2023-03-15T03:29:52.222Z,23.60
2023-03-15T03:32:20.022Z,23.50
2023-03-15T03:34:48.712Z,23.60
2023-03-15T03:37:20.936Z,23.50
2023-03-15T03:39:59.790Z,23.60
2023-03-15T03:42:27.599Z,23.50
2023-03-15T03:44:55.531Z,23.50
2023-03-15T03:47:25.702Z,23.50
2023-03-15T03:49:53.542Z,23.60
2023-03-15T03:52:21.372Z,23.50
2023-03-15T03:54:51.300Z,23.50
2023-03-15T03:57:19.087Z,23.50
2023-03-15T03:59:46.971Z,23.50
2023-03-15T04:02:14.955Z,23.50
2023-03-15T04:04:50.520Z,23.50
2023-03-15T04:07:21.079Z,23.50
2023-03-15T04:09:49.873Z,23.50
2023-03-15T04:12:18.865Z,23.50
2023-03-15T04:14:47.737Z,23.50
2023-03-15T04:17:16.759Z,23.50
2023-03-15T04:19:47.185Z,23.50
2023-03-15T04:22:18.379Z,23.50
2023-03-15T04:25:06.262Z,23.50
2023-03-15T04:28:00.369Z,23.50
2023-03-15T04:30:52.343Z,23.50
2023-03-15T04:33:30.022Z,23.50
2023-03-15T04:36:09.832Z,23.40
2023-03-15T04:39:05.882Z,23.50
2023-03-15T04:41:49.544Z,23.40
2023-03-15T04:44:47.482Z,23.40
2023-03-15T04:47:45.485Z,23.40
2023-03-15T04:50:30.835Z,23.40
2023-03-15T04:53:22.189Z,23.40
2023-03-15T04:56:25.870Z,23.40
2023-03-15T04:59:23.787Z,23.30
2023-03-15T05:02:03.952Z,23.30
2023-03-15T05:04:38.347Z,23.30
2023-03-15T05:07:12.830Z,23.30
2023-03-15T05:09:56.908Z,23.40
2023-03-15T05:12:42.675Z,23.40
2023-03-15T05:15:37.384Z,23.50
2023-03-15T05:18:18.674Z,23.40
2023-03-15T05:21:25.226Z,23.40
2023-03-15T05:24:20.585Z,23.40
2023-03-15T05:26:59.385Z,23.40
2023-03-15T05:29:53.628Z,23.40
2023-03-15T05:32:40.212Z,23.50
2023-03-15T05:35:14.594Z,23.40
2023-03-15T05:37:49.390Z,23.40
2023-03-15T05:40:38.024Z,23.40
2023-03-15T05:43:24.827Z,23.40
2023-03-15T05:46:13.528Z,23.20
2023-03-15T05:48:56.905Z,22.80
2023-03-15T05:51:51.384Z,22.50
2023-03-15T05:54:37.163Z,22.40
2023-03-15T05:57:24.185Z,22.70
2023-03-15T06:00:18.984Z,22.80
2023-03-15T06:02:52.751Z,22.90
2023-03-15T06:05:41.461Z,23.00
2023-03-15T06:12:42.261Z,23.20
2023-03-15T06:15:11.222Z,23.20
2023-03-15T06:17:40.821Z,23.20
2023-03-15T06:20:11.142Z,23.30
2023-03-15T06:22:39.381Z,23.30
2023-03-15T06:25:17.701Z,23.30
2023-03-15T06:27:46.580Z,23.30
2023-03-15T06:30:17.116Z,23.30
2023-03-15T06:32:46.541Z,23.30
2023-03-15T06:35:15.540Z,23.30
2023-03-15T06:37:43.859Z,23.30
2023-03-15T06:40:12.901Z,23.30
2023-03-15T06:42:42.109Z,23.30
2023-03-15T06:45:13.463Z,23.30
2023-03-15T06:47:42.580Z,23.40
2023-03-15T06:50:12.264Z,23.40
2023-03-15T06:52:40.680Z,23.40
2023-03-15T06:55:10.819Z,23.40
2023-03-15T06:57:39.140Z,23.40
2023-03-15T07:00:11.944Z,23.50
2023-03-15T07:02:40.391Z,23.40
2023-03-15T07:05:09.301Z,23.40
2023-03-15T07:07:37.627Z,23.40
2023-03-15T07:10:06.987Z,23.50
2023-03-15T07:12:35.144Z,23.50
2023-03-15T07:15:03.624Z,23.50
2023-03-15T07:17:31.705Z,23.40
2023-03-15T07:20:00.424Z,23.50
2023-03-15T07:22:28.848Z,23.50
2023-03-15T07:24:57.080Z,23.50
2023-03-15T07:27:25.466Z,23.50
2023-03-15T07:29:55.708Z,23.50
2023-03-15T07:32:24.522Z,23.50
2023-03-15T07:34:53.073Z,23.50
2023-03-15T07:37:21.306Z,23.50
2023-03-15T07:39:52.188Z,23.50
2023-03-15T07:42:20.614Z,23.50
2023-03-15T07:44:52.989Z,23.50
2023-03-15T07:47:21.253Z,23.50
2023-03-15T07:49:49.646Z,23.50
2023-03-15T07:52:18.503Z,23.50
2023-03-15T07:54:47.546Z,23.60
2023-03-15T07:57:15.861Z,23.60
2023-03-15T07:59:44.149Z,23.60
2023-03-15T08:02:14.396Z,23.60
2023-03-15T08:04:42.902Z,23.60
2023-03-15T08:11:42.106Z,23.60
2023-03-15T08:14:11.864Z,23.60
2023-03-15T08:16:40.318Z,23.60
2023-03-15T08:19:09.726Z,23.60
2023-03-15T08:21:38.241Z,23.60
2023-03-15T08:24:06.801Z,23.70
2023-03-15T08:26:35.221Z,23.70
2023-03-15T08:29:03.668Z,23.70
2023-03-15T08:31:32.714Z,23.70
2023-03-15T08:34:01.512Z,23.70
2023-03-15T08:36:30.235Z,23.70
2023-03-15T08:38:58.833Z,23.70
2023-03-15T08:41:27.107Z,23.70
2023-03-15T08:43:55.322Z,23.70
2023-03-15T08:46:23.745Z,23.70
2023-03-15T08:48:52.191Z,23.70
2023-03-15T08:51:22.105Z,23.70
2023-03-15T08:53:50.350Z,23.70
2023-03-15T08:56:19.076Z,23.80
2023-03-15T08:58:47.590Z,23.80
2023-03-15T09:01:16.762Z,23.80
2023-03-15T09:03:45.181Z,23.80
2023-03-15T09:06:13.914Z,23.80
2023-03-15T09:08:42.479Z,23.80
2023-03-15T09:11:10.901Z,23.80
2023-03-15T09:13:39.328Z,23.80
2023-03-15T09:16:08.264Z,23.80
2023-03-15T09:18:36.616Z,23.90
2023-03-15T09:21:06.287Z,24.00
2023-03-15T09:23:34.958Z,24.10
2023-03-15T09:26:03.420Z,24.20
2023-03-15T09:28:32.051Z,24.30
2023-03-15T09:31:03.985Z,24.30
2023-03-15T09:33:33.574Z,24.40
2023-03-15T09:36:01.695Z,24.50
2023-03-15T09:38:30.092Z,24.50
2023-03-15T09:41:02.033Z,24.60
2023-03-15T09:44:21.952Z,24.70
2023-03-15T09:47:12.777Z,24.70
2023-03-15T09:49:46.618Z,24.80
2023-03-15T09:52:35.489Z,24.90
2023-03-15T09:55:23.627Z,24.90
2023-03-15T09:58:03.102Z,25.00
2023-03-15T10:00:41.825Z,25.00
2023-03-15T10:03:24.809Z,25.10
2023-03-15T10:06:17.768Z,25.10
2023-03-15T10:08:47.730Z,25.10
2023-03-15T10:11:53.672Z,25.20
2023-03-15T10:14:47.320Z,25.10
2023-03-15T10:17:24.884Z,25.20
2023-03-15T10:20:01.598Z,25.30
2023-03-15T10:22:45.736Z,25.40
2023-03-15T10:25:28.960Z,25.40
2023-03-15T10:28:03.292Z,25.40
2023-03-15T10:30:35.502Z,25.50
2023-03-15T10:33:33.148Z,25.50
2023-03-15T10:36:11.688Z,25.50
2023-03-15T10:38:42.148Z,25.60
2023-03-15T10:41:17.854Z,25.60
2023-03-15T10:44:04.636Z,25.60
2023-03-15T10:46:33.638Z,25.60
2023-03-15T10:49:16.358Z,25.70
2023-03-15T10:51:47.445Z,25.70
2023-03-15T10:54:23.498Z,25.70
2023-03-15T10:57:12.592Z,25.80
2023-03-15T11:00:17.678Z,25.80
2023-03-15T11:03:02.050Z,25.80
2023-03-15T11:05:38.717Z,25.80
2023-03-15T11:08:13.848Z,25.80
2023-03-15T11:10:44.735Z,25.90
2023-03-15T11:13:22.431Z,25.90
2023-03-15T11:16:10.184Z,25.80
2023-03-15T11:19:04.074Z,25.90
2023-03-15T11:21:35.537Z,25.90
2023-03-15T11:24:06.336Z,25.90
2023-03-15T11:26:39.981Z,25.80
2023-03-15T11:29:14.999Z,25.90
2023-03-15T11:31:43.694Z,25.90
2023-03-15T11:34:44.730Z,25.90
2023-03-15T11:37:27.689Z,25.90
2023-03-15T11:40:11.295Z,26.00
2023-03-15T11:42:55.950Z,26.00
2023-03-15T11:45:59.276Z,26.10
2023-03-15T11:48:42.147Z,26.00
2023-03-15T11:51:13.211Z,26.00
2023-03-15T11:53:53.428Z,26.00
2023-03-15T11:56:45.876Z,26.00
2023-03-15T11:59:25.811Z,26.10
2023-03-15T12:02:04.829Z,26.10
2023-03-15T12:04:33.629Z,26.10
2023-03-15T12:07:05.644Z,26.10
2023-03-15T12:09:36.652Z,26.20
2023-03-15T12:12:25.361Z,26.30
2023-03-15T12:15:16.005Z,26.30
2023-03-15T12:18:00.060Z,26.30
2023-03-15T12:20:38.153Z,26.30
2023-03-15T12:23:29.193Z,26.40
2023-03-15T12:26:03.943Z,26.40
2023-03-15T12:28:36.428Z,26.40
2023-03-15T12:31:08.512Z,26.50
2023-03-15T12:33:58.950Z,26.50
2023-03-15T12:36:37.982Z,26.50
2023-03-15T12:39:18.621Z,26.50
2023-03-15T12:41:50.344Z,26.60
2023-03-15T12:44:39.969Z,26.60
2023-03-15T12:47:13.195Z,26.60
2023-03-15T12:49:44.212Z,26.70
2023-03-15T12:52:12.506Z,26.70
2023-03-15T12:55:10.554Z,26.70
2023-03-15T12:57:54.320Z,26.70
2023-03-15T13:00:23.473Z,26.80
2023-03-15T13:03:07.474Z,26.80
2023-03-15T13:06:22.434Z,26.80
2023-03-15T13:09:09.492Z,26.80
2023-03-15T13:11:40.783Z,26.80
2023-03-15T13:14:43.497Z,26.80
2023-03-15T13:17:25.143Z,26.90
2023-03-15T13:20:25.825Z,26.90
2023-03-15T13:23:19.120Z,26.90
2023-03-15T13:25:53.572Z,26.90
2023-03-15T13:28:23.896Z,27.00
2023-03-15T13:30:55.894Z,27.00
2023-03-15T13:38:24.868Z,27.10
2023-03-15T13:40:55.233Z,27.10
2023-03-15T13:43:29.541Z,27.10
2023-03-15T13:45:59.851Z,27.10
2023-03-15T13:48:33.999Z,27.10
2023-03-15T13:51:12.570Z,27.20
2023-03-15T13:53:49.560Z,27.10
2023-03-15T13:56:28.419Z,27.10
2023-03-15T13:58:59.105Z,27.10
2023-03-15T14:01:27.973Z,27.10
2023-03-15T14:04:09.842Z,27.10
2023-03-15T14:06:38.997Z,27.10
2023-03-15T14:09:17.646Z,27.00
2023-03-15T14:12:06.132Z,27.00
2023-03-15T14:14:38.920Z,27.00
2023-03-15T14:17:19.077Z,27.10
2023-03-15T14:19:55.375Z,27.10
2023-03-15T14:22:24.982Z,27.10
2023-03-15T14:24:54.140Z,27.10
2023-03-15T14:27:27.832Z,27.20
2023-03-15T14:30:01.641Z,27.20
2023-03-15T14:32:30.188Z,27.20
2023-03-15T14:35:22.454Z,27.30
2023-03-15T14:38:20.229Z,27.30
2023-03-15T14:40:49.317Z,27.30
2023-03-15T14:43:18.350Z,27.30
2023-03-15T14:45:48.821Z,27.30
2023-03-15T14:48:30.098Z,27.40
2023-03-15T14:50:59.072Z,27.40
2023-03-15T14:53:39.991Z,27.40
2023-03-15T14:56:14.472Z,27.40
2023-03-15T14:58:43.920Z,27.40
2023-03-15T15:01:20.098Z,27.40
2023-03-15T15:04:10.878Z,27.30
2023-03-15T15:06:39.504Z,27.20
2023-03-15T15:09:08.348Z,27.10
2023-03-15T15:11:36.783Z,27.10
2023-03-15T15:14:13.674Z,27.00
2023-03-15T15:16:43.320Z,27.00
2023-03-15T15:19:12.759Z,26.90
2023-03-15T15:21:42.886Z,26.90
2023-03-15T15:24:16.347Z,26.80
2023-03-15T15:26:46.133Z,26.80
2023-03-15T15:29:16.895Z,26.80
2023-03-15T15:31:46.539Z,26.70
2023-03-15T15:34:15.028Z,26.70
2023-03-15T15:36:45.710Z,26.70
2023-03-15T15:39:27.817Z,26.60
2023-03-15T15:41:56.790Z,26.50
2023-03-15T15:44:28.756Z,26.60
2023-03-15T15:46:57.854Z,26.50
2023-03-15T15:49:26.561Z,26.50
2023-03-15T15:51:55.112Z,26.50
2023-03-15T15:54:27.813Z,26.40
2023-03-15T15:56:58.752Z,26.40
2023-03-15T15:59:27.548Z,26.30
2023-03-15T16:02:01.963Z,26.30
2023-03-15T16:04:32.978Z,26.30
2023-03-15T16:07:03.991Z,26.30
2023-03-15T16:09:37.852Z,26.20
2023-03-15T16:12:16.934Z,26.20
2023-03-15T16:14:45.809Z,26.20
2023-03-15T16:17:24.385Z,26.20
2023-03-15T16:19:54.885Z,26.10
2023-03-15T16:22:25.384Z,26.10
2023-03-15T16:24:57.540Z,26.00
2023-03-15T16:27:28.447Z,26.00
2023-03-15T16:29:57.152Z,26.00
2023-03-15T16:32:42.907Z,26.00
2023-03-15T16:35:17.413Z,26.00
2023-03-15T16:37:46.586Z,25.90
2023-03-15T16:40:18.639Z,26.00
2023-03-15T16:42:47.269Z,25.90
2023-03-15T16:45:16.792Z,25.90
2023-03-15T16:47:45.924Z,25.90
2023-03-15T16:50:14.963Z,25.80
2023-03-15T16:52:46.230Z,25.80
2023-03-15T16:55:24.833Z,25.80
2023-03-15T16:57:53.720Z,25.80
2023-03-15T17:00:23.072Z,25.80
2023-03-15T17:02:52.579Z,25.80
2023-03-15T17:05:22.055Z,25.80
2023-03-15T17:07:52.944Z,25.70
2023-03-15T17:10:25.032Z,25.60
2023-03-15T17:12:55.597Z,25.60
2023-03-15T17:15:26.685Z,25.50
2023-03-15T17:17:59.053Z,25.50
2023-03-15T17:20:31.379Z,25.50
2023-03-15T17:23:04.384Z,25.60
2023-03-15T17:25:34.595Z,25.50
2023-03-15T17:28:03.299Z,25.50
2023-03-15T17:30:34.774Z,25.50
2023-03-15T17:33:03.980Z,25.60
2023-03-15T17:35:45.037Z,25.50
2023-03-15T17:38:22.088Z,25.50
2023-03-15T17:40:51.665Z,25.50
2023-03-15T17:43:20.299Z,25.50
2023-03-15T17:45:48.952Z,25.50
2023-03-15T17:48:17.364Z,25.40
2023-03-15T17:50:46.076Z,25.50
2023-03-15T17:57:54.066Z,25.40
2023-03-15T18:00:24.521Z,25.40
2023-03-15T18:02:56.037Z,25.40
2023-03-15T18:05:27.780Z,25.40
2023-03-15T18:07:59.297Z,25.30
2023-03-15T18:10:41.828Z,25.30
2023-03-15T18:13:15.148Z,25.30
2023-03-15T18:15:44.226Z,25.30
2023-03-15T18:18:12.917Z,25.30
2023-03-15T18:20:42.441Z,25.30
2023-03-15T18:23:18.510Z,25.30
2023-03-15T18:25:46.954Z,25.30
2023-03-15T18:28:15.307Z,25.30
2023-03-15T18:30:45.160Z,25.30
2023-03-15T18:33:15.927Z,25.30
2023-03-15T18:35:44.724Z,25.30
2023-03-15T18:38:13.555Z,25.20
2023-03-15T18:40:42.255Z,25.20
2023-03-15T18:43:15.200Z,25.30
2023-03-15T18:45:43.823Z,25.20
2023-03-15T18:48:12.386Z,25.20
2023-03-15T18:50:40.847Z,25.20
2023-03-15T18:53:09.793Z,25.20
2023-03-15T18:55:38.605Z,25.20
2023-03-15T18:58:13.453Z,25.20
2023-03-15T19:00:42.121Z,25.20
2023-03-15T19:03:11.818Z,25.20
2023-03-15T19:05:41.025Z,25.10
2023-03-15T19:08:09.834Z,25.20
2023-03-15T19:10:38.480Z,25.10
2023-03-15T19:13:07.257Z,25.10
2023-03-15T19:15:36.180Z,25.10
2023-03-15T19:18:05.091Z,25.10
2023-03-15T19:20:35.394Z,25.10
2023-03-15T19:23:03.886Z,25.10
2023-03-15T19:25:32.429Z,25.10
2023-03-15T19:28:00.832Z,25.10
2023-03-15T19:30:32.628Z,25.10
2023-03-15T19:33:01.707Z,25.10
2023-03-15T19:35:31.856Z,25.10
2023-03-15T19:38:01.239Z,25.00
2023-03-15T19:40:30.147Z,25.10
2023-03-15T19:42:58.527Z,25.00
2023-03-15T19:45:27.260Z,25.10
2023-03-15T19:47:56.259Z,25.00
2023-03-15T19:50:24.934Z,25.00
2023-03-15T19:52:53.669Z,25.00
2023-03-15T19:55:22.045Z,25.00
2023-03-15T19:57:50.724Z,25.00
2023-03-15T20:00:20.860Z,25.00
2023-03-15T20:02:50.373Z,25.00
2023-03-15T20:05:20.726Z,25.00
2023-03-15T20:07:52.726Z,24.90
2023-03-15T20:10:21.881Z,24.90
2023-03-15T20:12:51.033Z,24.90
2023-03-15T20:15:20.685Z,24.90
2023-03-15T20:17:49.541Z,24.90
2023-03-15T20:20:19.057Z,24.90
2023-03-15T20:22:48.316Z,24.90
2023-03-15T20:25:19.039Z,24.90
2023-03-15T20:27:48.360Z,24.90
2023-03-15T20:30:18.204Z,24.80
2023-03-15T20:32:47.054Z,24.90
2023-03-15T20:35:15.888Z,24.90
2023-03-15T20:37:44.642Z,24.90
2023-03-15T20:40:15.086Z,24.90
2023-03-15T20:42:44.138Z,24.90
2023-03-15T20:45:14.055Z,24.90
2023-03-15T20:47:43.153Z,24.90
2023-03-15T20:50:13.677Z,24.90
2023-03-15T20:52:43.728Z,24.80
2023-03-15T20:55:14.004Z,24.90
2023-03-15T20:57:43.483Z,24.80
2023-03-15T21:00:19.284Z,24.90
2023-03-15T21:02:48.183Z,24.90
2023-03-15T21:05:17.713Z,24.80
2023-03-15T21:07:46.822Z,24.80
2023-03-15T21:10:15.905Z,24.80
2023-03-15T21:12:44.918Z,24.80
2023-03-15T21:15:18.031Z,24.80
2023-03-15T21:17:50.541Z,24.80
2023-03-15T21:20:19.975Z,24.80
2023-03-15T21:22:48.400Z,24.80
2023-03-15T21:25:17.579Z,24.80
2023-03-15T21:27:46.428Z,24.80
2023-03-15T21:30:16.040Z,24.80
2023-03-15T21:32:45.021Z,24.80
2023-03-15T21:35:13.837Z,24.80
2023-03-15T21:37:42.453Z,24.80
2023-03-15T21:40:13.275Z,24.80
2023-03-15T21:42:43.883Z,24.80
2023-03-15T21:45:12.591Z,24.80
2023-03-15T21:47:41.060Z,24.80
2023-03-15T21:50:12.033Z,24.80
2023-03-15T21:52:40.733Z,24.80
2023-03-15T21:55:09.699Z,24.70
2023-03-15T21:57:37.964Z,24.80
2023-03-15T22:00:12.018Z,24.80
2023-03-15T22:02:40.534Z,24.80
2023-03-15T22:05:12.410Z,24.80
2023-03-15T22:07:42.336Z,24.80
2023-03-15T22:10:11.566Z,24.80
2023-03-15T22:12:40.198Z,24.80
2023-03-15T22:15:09.871Z,24.70
2023-03-15T22:17:39.751Z,24.70
2023-03-15T22:20:13.229Z,24.70
2023-03-15T22:22:42.028Z,24.70
2023-03-15T22:25:11.310Z,24.70
2023-03-15T22:27:42.174Z,24.70
2023-03-15T22:30:13.832Z,24.80
2023-03-15T22:32:46.128Z,24.70
2023-03-15T22:35:16.851Z,24.70
2023-03-15T22:37:45.736Z,24.70
2023-03-15T22:40:14.833Z,24.70
2023-03-15T22:42:44.584Z,24.70
2023-03-15T22:45:13.871Z,24.70
2023-03-15T22:47:42.601Z,24.70
2023-03-15T22:50:13.458Z,24.70
2023-03-15T22:52:42.302Z,24.70
2023-03-15T22:55:12.059Z,24.70
2023-03-15T22:57:41.112Z,24.70
2023-03-15T23:00:14.243Z,24.70
2023-03-15T23:02:45.993Z,24.70
2023-03-15T23:05:14.537Z,24.70
2023-03-15T23:07:42.839Z,24.70
2023-03-15T23:10:11.871Z,24.70
2023-03-15T23:12:41.570Z,24.70
2023-03-15T23:15:12.358Z,24.60
2023-03-15T23:17:46.281Z,24.70
2023-03-15T23:20:17.499Z,24.60
2023-03-15T23:22:46.673Z,24.70
2023-03-15T23:25:16.814Z,24.60
2023-03-15T23:27:45.446Z,24.70
2023-03-15T23:30:18.069Z,24.60
2023-03-15T23:32:46.572Z,24.60
2023-03-15T23:35:15.294Z,24.60
2023-03-15T23:37:43.624Z,24.60
2023-03-15T23:40:15.474Z,24.60
2023-03-15T23:42:44.843Z,24.60
2023-03-15T23:45:15.477Z,24.60
2023-03-15T23:47:43.991Z,24.60
2023-03-15T23:50:13.921Z,24.60
2023-03-15T23:52:42.324Z,24.60
2023-03-15T23:55:11.804Z,24.60
2023-03-15T23:57:40.774Z,24.60
